Time;durP1;ratioP1;P1;durP2;ratioP2;P2;SDS_P1;SDS_P2;PMS_P1;PMS_P2;Temp;Humidity;BMP_temperature;BMP_pressure;BME280_temperature;BME280_humidity;BME280_pressure;Samples;Min_cycle;Max_cycle;Signal;HPM_P1;HPM_P2
2023/12/11 14:08:06;;;;;;;;;;;;;;;13.73;49.27;98834.59;1090115;46;1703;-82
2023/12/11 14:09:14;;;;;;;;;;;;;;;13.85;48.97;98830.34;1088010;54;1154;-82
2023/12/11 14:10:21;;;;;;;;;;;;;;;13.89;48.75;98841.53;1087952;54;1149;-83
2023/12/11 14:11:33;;;;;;;;;;;;;;;13.82;48.89;98841.47;1087436;47;1063;-83
2023/12/11 14:12:35;;;;;;;;;;;;;;;13.51;48.98;98826.56;1088166;54;1069;-82
2023/12/11 14:14:55;;;;;;;;;;;;;;;13.56;48.61;98839.41;1088060;46;1092;-82
2023/12/11 14:15:55;;;;;;;;;;;;;;;13.64;48.52;98838.44;1088005;47;1391;-82
2023/12/11 14:16:59;;;;;;;;;;;;;;;13.49;48.72;98846.56;1088197;54;1099;-82
2023/12/11 14:18:00;;;;;;;;;;;;;;;13.69;48.16;98836.00;1088224;54;979;-81
2023/12/11 14:19:06;;;;;;;;;;;;;;;13.70;47.98;98834.97;1088360;46;951;-80
2023/12/11 14:20:08;;;;;;;;;;;;;;;13.50;48.46;98843.72;1088023;54;1112;-82
2023/12/11 14:21:12;;;;;;;;;;;;;;;13.44;48.42;98849.84;1088121;54;1114;-82
2023/12/11 14:22:13;;;;;;;;;;;;;;;13.49;48.30;98839.38;1088119;54;972;-82
2023/12/11 14:23:16;;;;;;;;;;;;;;;13.45;48.29;98846.13;1088012;54;1875;-82
2023/12/11 14:24:17;;;;;;;;;;;;;;;13.65;47.94;98848.97;1088057;47;1036;-82
2023/12/11 14:25:21;;;;;;;;;;;;;;;13.58;48.13;98853.47;1087961;46;1012;-82
2023/12/11 14:26:21;;;;;;;;;;;;;;;13.35;48.12;98865.22;1087705;54;1364;-79
2023/12/11 14:27:32;;;;;;;;;;;;;;;13.45;48.29;98851.50;1087154;47;1182;-80
2023/12/11 14:28:36;;;;;;;;;;;;;;;13.36;48.14;98860.66;1087798;54;1124;-83
2023/12/11 14:29:40;;;;;;;;;;;;;;;13.50;48.18;98862.50;1087895;54;1087;-82
2023/12/11 14:30:41;;;;;;;;;;;;;;;13.50;48.32;98865.19;1087727;46;1484;-82
2023/12/11 14:31:42;;;;;;;;;;;;;;;13.37;48.58;98865.03;1088082;54;1095;-80
2023/12/11 14:32:47;;;;;;;;;;;;;;;13.33;48.86;98861.03;1088038;54;1091;-81
2023/12/11 14:33:48;;;;;;;;;;;;;;;13.30;49.00;98875.69;1088010;54;1138;-81
2023/12/11 14:34:51;;;;;;;;;;;;;;;13.42;48.61;98870.66;1087573;46;1000;-81
2023/12/11 14:35:52;;;;;;;;;;;;;;;13.36;49.01;98871.41;1086607;47;1194;-81
2023/12/11 14:36:55;;;;;;;;;;;;;;;13.19;49.74;98876.19;1086947;54;1197;-81
2023/12/11 14:37:56;;;;;;;;;;;;;;;13.04;49.98;98876.22;1086971;47;1187;-81
2023/12/11 14:39:00;;;;;;;;;;;;;;;13.11;50.22;98883.34;1086999;47;1063;-81
2023/12/11 14:40:01;;;;;;;;;;;;;;;13.15;50.19;98883.78;1087188;54;1025;-81
2023/12/11 14:41:04;;;;;;;;;;;;;;;13.21;49.94;98882.19;1086762;47;1495;-81
2023/12/11 14:42:05;;;;;;;;;;;;;;;13.10;50.50;98888.91;1087124;47;1094;-82
2023/12/11 14:43:12;;;;;;;;;;;;;;;13.40;49.63;98888.84;1086809;47;961;-81
2023/12/11 14:44:13;;;;;;;;;;;;;;;13.23;50.14;98885.53;1087174;47;1846;-81
2023/12/11 14:45:15;;;;;;;;;;;;;;;13.27;50.38;98894.88;1087431;54;1142;-82
2023/12/11 14:46:18;;;;;;;;;;;;;;;13.21;50.58;98898.31;1087016;47;1920;-81
2023/12/11 14:47:20;;;;;;;;;;;;;;;13.37;50.34;98907.97;1087079;47;952;-80
2023/12/11 14:48:24;;;;;;;;;;;;;;;13.35;50.45;98893.91;1086855;47;1150;-81
2023/12/11 14:49:25;;;;;;;;;;;;;;;13.22;50.66;98916.06;1086558;54;1059;-82
2023/12/11 14:50:28;;;;;;;;;;;;;;;13.37;50.30;98898.06;1086710;54;1099;-80
2023/12/11 14:51:29;;;;;;;;;;;;;;;13.38;50.51;98909.63;1086732;54;1245;-81
2023/12/11 14:52:32;;;;;;;;;;;;;;;13.34;50.68;98901.13;1086643;54;1099;-81
2023/12/11 14:53:33;;;;;;;;;;;;;;;13.24;50.70;98908.66;1086781;46;1100;-81
2023/12/11 14:54:36;;;;;;;;;;;;;;;13.32;51.06;98905.03;1086916;54;1158;-80
2023/12/11 14:55:38;;;;;;;;;;;;;;;13.31;51.06;98919.47;1085601;54;1047;-80
2023/12/11 14:56:41;;;;;;;;;;;;;;;13.17;51.47;98921.19;1085394;54;1414;-80
2023/12/11 14:57:42;;;;;;;;;;;;;;;13.05;51.84;98921.66;1086137;54;1480;-81
2023/12/11 14:58:48;;;;;;;;;;;;;;;13.04;52.16;98924.53;1086404;54;1102;-81
2023/12/11 14:59:48;;;;;;;;;;;;;;;13.19;51.72;98929.84;1085796;54;1248;-79
2023/12/11 15:00:52;;;;;;;;;;;;;;;13.27;51.58;98922.53;1086738;54;1143;-80
2023/12/11 15:01:54;;;;;;;;;;;;;;;13.33;51.44;98929.00;1086430;47;1109;-80
2023/12/11 15:02:57;;;;;;;;;;;;;;;13.23;51.76;98923.91;1086478;54;1135;-80
2023/12/11 15:03:58;;;;;;;;;;;;;;;13.04;52.32;98932.56;1086263;47;1894;-80
2023/12/11 15:05:01;;;;;;;;;;;;;;;13.03;52.33;98934.44;1086785;54;1170;-79
2023/12/11 15:06:04;;;;;;;;;;;;;;;13.25;51.74;98932.63;1086648;54;1456;-79
2023/12/11 15:07:11;;;;;;;;;;;;;;;13.00;52.03;98934.78;1086682;54;1090;-80
2023/12/11 15:08:12;;;;;;;;;;;;;;;12.94;52.27;98928.31;1085658;47;1119;-79
2023/12/11 15:09:16;;;;;;;;;;;;;;;12.97;52.06;98934.34;1085415;47;1267;-80
2023/12/11 15:10:17;;;;;;;;;;;;;;;13.08;51.90;98936.53;1086624;54;1229;-79
2023/12/11 15:11:21;;;;;;;;;;;;;;;13.00;52.03;98939.34;1087638;54;1154;-79
2023/12/11 15:12:22;;;;;;;;;;;;;;;12.78;52.05;98947.31;1087308;47;1027;-79
2023/12/11 15:13:26;;;;;;;;;;;;;;;12.98;51.81;98941.38;1087090;54;1047;-80
2023/12/11 15:14:31;;;;;;;;;;;;;;;13.07;51.56;98959.03;1087465;47;1052;-80
2023/12/11 15:15:34;;;;;;;;;;;;;;;12.82;52.32;98945.09;1087840;54;1111;-79
2023/12/11 15:16:36;;;;;;;;;;;;;;;12.90;51.94;98943.16;1087989;47;1308;-78
2023/12/11 15:17:37;;;;;;;;;;;;;;;13.00;52.00;98950.88;1086838;54;1090;-80
2023/12/11 15:18:41;;;;;;;;;;;;;;;12.91;51.80;98952.00;1086269;54;1091;-80
2023/12/11 15:19:42;;;;;;;;;;;;;;;12.74;52.47;98952.22;1086064;54;1072;-81
2023/12/11 15:20:45;;;;;;;;;;;;;;;12.77;52.32;98953.69;1084718;47;1197;-80
2023/12/11 15:21:46;;;;;;;;;;;;;;;12.78;52.11;98956.22;1084775;54;1187;-80
2023/12/11 15:22:47;;;;;;;;;;;;;;;12.75;52.33;98945.84;1085748;47;1148;-79
2023/12/11 15:23:50;;;;;;;;;;;;;;;12.79;52.23;98957.88;1086287;54;1864;-80
2023/12/11 15:24:53;;;;;;;;;;;;;;;12.78;52.51;98961.56;1086491;54;1087;-79
2023/12/11 15:25:56;;;;;;;;;;;;;;;12.86;51.93;98970.53;1086896;46;1259;-79
2023/12/11 15:26:57;;;;;;;;;;;;;;;12.92;52.10;98959.91;1087171;47;1000;-79
2023/12/11 15:28:00;;;;;;;;;;;;;;;12.86;51.76;98962.47;1086941;47;1092;-80
2023/12/11 15:29:05;;;;;;;;;;;;;;;12.86;52.16;98963.31;1086436;54;1138;-80
2023/12/11 15:30:12;;;;;;;;;;;;;;;12.73;52.26;98955.91;1086462;54;1146;-80
2023/12/11 15:31:19;;;;;;;;;;;;;;;12.62;52.70;98959.91;1086842;47;1501;-79
2023/12/11 15:32:23;;;;;;;;;;;;;;;12.71;52.44;98957.13;1086703;47;1053;-79
2023/12/11 15:33:23;;;;;;;;;;;;;;;12.49;52.73;98973.09;1087053;54;1152;-80
2023/12/11 15:34:27;;;;;;;;;;;;;;;12.47;52.84;98964.41;1087209;54;1147;-80
2023/12/11 15:35:27;;;;;;;;;;;;;;;12.49;53.29;98965.06;1086735;47;1088;-80
2023/12/11 15:36:32;;;;;;;;;;;;;;;12.35;53.38;98965.88;1086219;54;1369;-80
2023/12/11 15:37:32;;;;;;;;;;;;;;;12.27;53.73;98964.97;1085737;54;1063;-80
2023/12/11 15:38:37;;;;;;;;;;;;;;;12.33;53.54;98971.41;1084797;47;1487;-79
2023/12/11 15:39:37;;;;;;;;;;;;;;;12.33;53.77;98971.41;1085902;54;1081;-81
2023/12/11 15:40:41;;;;;;;;;;;;;;;12.35;53.45;98973.94;1086702;54;1124;-81
2023/12/11 15:41:42;;;;;;;;;;;;;;;12.51;53.44;98981.78;1086376;47;1025;-80
2023/12/11 15:42:46;;;;;;;;;;;;;;;12.57;53.18;98988.28;1086213;54;1063;-80
2023/12/11 15:43:46;;;;;;;;;;;;;;;12.53;53.48;98974.41;1086580;47;1869;-80
2023/12/11 15:44:49;;;;;;;;;;;;;;;12.49;53.61;98981.13;1086567;54;1099;-81
2023/12/11 15:45:53;;;;;;;;;;;;;;;12.45;53.49;98985.22;1086702;54;1383;-81
2023/12/11 15:46:56;;;;;;;;;;;;;;;12.47;53.64;98983.16;1087137;54;1099;-80
2023/12/11 15:47:57;;;;;;;;;;;;;;;12.48;53.58;98979.47;1087327;54;1293;-80
2023/12/11 15:49:00;;;;;;;;;;;;;;;12.52;53.83;98990.66;1086732;47;1220;-81
2023/12/11 15:50:02;;;;;;;;;;;;;;;12.53;53.65;98992.31;1085904;54;1498;-80
2023/12/11 15:51:11;;;;;;;;;;;;;;;12.63;53.28;98987.53;1086010;47;1493;-81
2023/12/11 15:52:12;;;;;;;;;;;;;;;12.72;53.00;98982.91;1086861;54;1323;-80
2023/12/11 15:53:13;;;;;;;;;;;;;;;12.77;53.02;98984.03;1086921;54;1465;-80
2023/12/11 15:54:16;;;;;;;;;;;;;;;12.51;53.49;98995.19;1086957;47;1114;-81
2023/12/11 15:55:17;;;;;;;;;;;;;;;12.67;53.32;98988.00;1086977;47;1004;-81
2023/12/11 15:56:20;;;;;;;;;;;;;;;12.67;53.33;98993.34;1087696;47;1436;-79
2023/12/11 15:57:21;;;;;;;;;;;;;;;12.50;53.67;99004.25;1087309;47;1223;-79
2023/12/11 15:58:24;;;;;;;;;;;;;;;12.51;53.97;98995.19;1087457;47;973;-79
2023/12/11 15:59:25;;;;;;;;;;;;;;;12.67;53.58;98999.56;1087151;47;1576;-79
2023/12/11 16:00:28;;;;;;;;;;;;;;;12.54;53.52;99000.22;1087190;54;1061;-79
2023/12/11 16:01:31;;;;;;;;;;;;;;;12.66;53.65;98997.06;1087333;47;996;-79
2023/12/11 16:02:39;;;;;;;;;;;;;;;12.72;53.50;98996.34;1087331;47;1144;-79
2023/12/11 16:03:41;;;;;;;;;;;;;;;12.59;53.75;98992.44;1087612;47;1480;-80
2023/12/11 16:04:44;;;;;;;;;;;;;;;12.58;53.94;99001.50;1087400;47;1856;-79
2023/12/11 16:05:45;;;;;;;;;;;;;;;12.59;53.42;98994.28;1087267;47;1165;-80
2023/12/11 16:06:48;;;;;;;;;;;;;;;12.68;53.51;99011.97;1087529;47;1288;-78
2023/12/11 16:07:49;;;;;;;;;;;;;;;12.76;53.34;99002.97;1087534;54;1039;-78
2023/12/11 16:08:49;;;;;;;;;;;;;;;12.83;53.39;99001.25;1087739;47;1254;-79
2023/12/11 16:09:52;;;;;;;;;;;;;;;12.89;53.20;98999.66;1087150;47;1109;-78
2023/12/11 16:10:53;;;;;;;;;;;;;;;12.95;52.94;98994.38;1087779;54;1028;-79
2023/12/11 16:11:57;;;;;;;;;;;;;;;12.80;53.46;98997.06;1087644;47;1063;-78
2023/12/11 16:12:58;;;;;;;;;;;;;;;12.53;53.83;99006.59;1087771;47;1107;-78
2023/12/11 16:14:02;;;;;;;;;;;;;;;12.69;53.70;99010.09;1087562;54;1021;-79
2023/12/11 16:15:03;;;;;;;;;;;;;;;12.55;53.99;99001.88;1087487;47;1143;-78
2023/12/11 16:16:11;;;;;;;;;;;;;;;12.52;54.20;99001.38;1086846;54;1420;-78
2023/12/11 16:17:15;;;;;;;;;;;;;;;12.53;54.33;99009.25;1087516;54;1053;-79
2023/12/11 16:18:19;;;;;;;;;;;;;;;12.61;54.02;99003.00;1086785;54;918;-79
2023/12/11 16:19:19;;;;;;;;;;;;;;;12.67;53.72;99006.75;1086424;47;1162;-80
2023/12/11 16:20:22;;;;;;;;;;;;;;;12.19;54.93;99005.19;1086741;47;1140;-78
2023/12/11 16:21:23;;;;;;;;;;;;;;;12.31;55.04;99006.44;1086109;54;1050;-80
2023/12/11 16:22:27;;;;;;;;;;;;;;;12.32;55.08;99007.28;1086902;54;1103;-80
2023/12/11 16:23:28;;;;;;;;;;;;;;;12.41;54.76;99006.19;1087165;54;1131;-80
2023/12/11 16:24:31;;;;;;;;;;;;;;;12.17;55.32;99015.28;1087720;47;1860;-80
2023/12/11 16:25:32;;;;;;;;;;;;;;;12.19;55.30;99007.88;1087710;47;1082;-80
2023/12/11 16:26:35;;;;;;;;;;;;;;;12.24;55.07;99007.34;1087246;47;1266;-80
2023/12/11 16:27:36;;;;;;;;;;;;;;;12.42;54.93;99004.34;1086977;47;1521;-80
2023/12/11 16:28:39;;;;;;;;;;;;;;;12.23;55.23;99008.38;1086760;54;1127;-80
2023/12/11 16:29:40;;;;;;;;;;;;;;;12.33;55.22;99012.47;1085818;54;1169;-80
2023/12/11 16:30:44;;;;;;;;;;;;;;;12.18;55.38;99019.63;1086942;54;1035;-81
2023/12/11 16:31:46;;;;;;;;;;;;;;;12.14;55.66;99016.47;1087018;54;1042;-80
2023/12/11 16:32:52;;;;;;;;;;;;;;;12.13;55.76;99014.81;1086979;47;1179;-81
2023/12/11 16:33:53;;;;;;;;;;;;;;;12.22;55.54;99020.94;1086833;54;1174;-80
2023/12/11 16:34:58;;;;;;;;;;;;;;;12.22;55.76;99012.06;1086803;47;913;-81
2023/12/11 16:35:59;;;;;;;;;;;;;;;12.35;55.60;99016.81;1087115;47;1433;-80
2023/12/11 16:37:00;;;;;;;;;;;;;;;12.38;55.09;99027.13;1087511;54;1102;-80
2023/12/11 16:38:03;;;;;;;;;;;;;;;12.30;55.42;99028.06;1087688;54;910;-80
2023/12/11 16:39:04;;;;;;;;;;;;;;;12.25;55.99;99025.09;1087478;47;1008;-80
2023/12/11 16:40:08;;;;;;;;;;;;;;;12.22;55.59;99039.69;1087808;47;1175;-80
2023/12/11 16:41:09;;;;;;;;;;;;;;;12.35;55.63;99032.88;1087715;54;1060;-80
2023/12/11 16:42:13;;;;;;;;;;;;;;;12.43;55.14;99041.66;1087817;54;1076;-80
2023/12/11 16:43:14;;;;;;;;;;;;;;;12.22;55.76;99044.22;1087864;54;1003;-81
2023/12/11 16:44:17;;;;;;;;;;;;;;;12.16;56.17;99040.41;1087362;47;1871;-81
2023/12/11 16:45:18;;;;;;;;;;;;;;;12.29;55.71;99040.63;1087407;54;1191;-79
2023/12/11 16:46:19;;;;;;;;;;;;;;;12.25;56.02;99047.38;1087498;47;1436;-82
2023/12/11 16:47:22;;;;;;;;;;;;;;;12.10;55.92;99046.47;1087396;47;1095;-80
2023/12/11 16:48:25;;;;;;;;;;;;;;;12.14;56.23;99043.25;1087334;54;1103;-80
2023/12/11 16:49:29;;;;;;;;;;;;;;;12.23;55.75;99049.38;1087487;54;1195;-81
2023/12/11 16:50:29;;;;;;;;;;;;;;;12.34;55.95;99058.84;1088047;54;1064;-80
2023/12/11 16:51:33;;;;;;;;;;;;;;;12.43;55.56;99054.25;1087738;54;1088;-81
2023/12/11 16:52:34;;;;;;;;;;;;;;;12.39;55.54;99055.63;1088096;54;1419;-80
2023/12/11 16:53:35;;;;;;;;;;;;;;;12.42;55.32;99052.59;1087919;54;999;-80
2023/12/11 16:54:38;;;;;;;;;;;;;;;12.37;55.74;99050.44;1087888;47;989;-81
2023/12/11 16:55:39;;;;;;;;;;;;;;;12.49;55.36;99056.19;1087358;47;1157;-80
2023/12/11 16:56:44;;;;;;;;;;;;;;;12.43;55.54;99049.72;1087887;47;1258;-80
2023/12/11 16:57:45;;;;;;;;;;;;;;;12.24;55.68;99058.25;1088003;54;1051;-81
2023/12/11 16:58:49;;;;;;;;;;;;;;;12.11;55.91;99051.66;1088202;54;1016;-81
2023/12/11 16:59:49;;;;;;;;;;;;;;;12.32;55.70;99056.34;1087829;47;996;-81
2023/12/11 17:00:50;;;;;;;;;;;;;;;12.26;55.66;99046.34;1087570;47;1035;-81
2023/12/11 17:01:54;;;;;;;;;;;;;;;12.17;56.01;99053.63;1087799;47;1374;-82
2023/12/11 17:02:59;;;;;;;;;;;;;;;12.04;55.81;99055.22;1087985;54;1178;-80
2023/12/11 17:04:10;;;;;;;;;;;;;;;11.88;56.04;99064.16;1087882;47;965;-81
2023/12/11 17:05:11;;;;;;;;;;;;;;;11.94;56.04;99058.94;1087894;54;1834;-80
2023/12/11 17:06:17;;;;;;;;;;;;;;;12.22;55.21;99057.63;1087360;47;1412;-80
2023/12/11 17:07:24;;;;;;;;;;;;;;;12.27;55.07;99058.75;1088215;54;1201;-82
2023/12/11 17:08:25;;;;;;;;;;;;;;;12.04;55.56;99058.75;1088212;47;1155;-81
2023/12/11 17:09:28;;;;;;;;;;;;;;;12.18;55.36;99065.19;1088107;47;1072;-82
2023/12/11 17:10:29;;;;;;;;;;;;;;;12.04;55.60;99057.91;1087445;47;1126;-81
2023/12/11 17:11:34;;;;;;;;;;;;;;;12.10;55.32;99067.91;1086856;47;1490;-80
2023/12/11 17:12:35;;;;;;;;;;;;;;;12.18;55.29;99065.19;1087366;54;1102;-81
2023/12/11 17:13:40;;;;;;;;;;;;;;;12.41;54.50;99069.69;1087441;54;1082;-81
2023/12/11 17:14:42;;;;;;;;;;;;;;;12.26;54.76;99064.25;1087831;54;1083;-81
2023/12/11 17:15:42;;;;;;;;;;;;;;;12.00;55.29;99063.59;1087869;47;1064;-80
2023/12/11 17:16:46;;;;;;;;;;;;;;;12.14;54.88;99063.88;1087449;54;1372;-81
2023/12/11 17:17:48;;;;;;;;;;;;;;;11.96;55.68;99067.63;1087571;46;1004;-82
2023/12/11 17:18:52;;;;;;;;;;;;;;;12.00;55.61;99068.97;1087872;47;937;-80
2023/12/11 17:19:55;;;;;;;;;;;;;;;11.96;55.38;99061.44;1087908;47;1077;-82
2023/12/11 17:20:58;;;;;;;;;;;;;;;12.08;55.10;99064.59;1087957;47;916;-82
2023/12/11 17:21:59;;;;;;;;;;;;;;;11.97;55.15;99066.66;1087986;47;1143;-82
2023/12/11 17:23:03;;;;;;;;;;;;;;;12.19;54.71;99068.69;1088025;54;1096;-81
2023/12/11 17:24:04;;;;;;;;;;;;;;;11.94;55.15;99072.34;1087862;47;1053;-81
2023/12/11 17:25:09;;;;;;;;;;;;;;;12.09;55.00;99066.25;1087925;47;1839;-81
2023/12/11 17:26:10;;;;;;;;;;;;;;;11.98;54.81;99062.13;1088041;54;1171;-81
2023/12/11 17:27:10;;;;;;;;;;;;;;;11.88;54.94;99065.03;1087872;54;995;-80
2023/12/11 17:28:14;;;;;;;;;;;;;;;11.92;54.73;99073.53;1087070;46;1132;-81
2023/12/11 17:29:15;;;;;;;;;;;;;;;12.08;54.13;99072.63;1087243;54;1571;-81
2023/12/11 17:30:18;;;;;;;;;;;;;;;12.02;54.49;99066.13;1087691;54;1087;-81
2023/12/11 17:31:19;;;;;;;;;;;;;;;11.95;54.23;99075.88;1088023;54;1119;-81
2023/12/11 17:32:23;;;;;;;;;;;;;;;11.96;54.29;99059.59;1087898;54;1183;-81
2023/12/11 17:33:24;;;;;;;;;;;;;;;11.87;54.05;99066.03;1087968;54;1044;-82
2023/12/11 17:34:27;;;;;;;;;;;;;;;11.83;54.49;99062.03;1087343;47;1083;-81
2023/12/11 17:35:31;;;;;;;;;;;;;;;11.74;54.46;99057.72;1087457;54;1137;-82
2023/12/11 17:36:34;;;;;;;;;;;;;;;11.69;54.32;99075.16;1087468;47;1367;-81
2023/12/11 17:37:34;;;;;;;;;;;;;;;11.74;54.07;99061.25;1087877;54;1160;-81
2023/12/11 17:38:39;;;;;;;;;;;;;;;11.74;54.28;99074.63;1087656;47;1118;-82
2023/12/11 17:39:39;;;;;;;;;;;;;;;11.79;54.22;99072.25;1086838;47;973;-81
2023/12/11 17:40:43;;;;;;;;;;;;;;;11.89;53.75;99057.81;1087007;47;1029;-81
2023/12/11 17:41:44;;;;;;;;;;;;;;;11.87;54.06;99071.38;1087429;46;977;-81
2023/12/11 17:42:48;;;;;;;;;;;;;;;11.82;53.72;99063.03;1087776;54;1107;-81
2023/12/11 17:43:49;;;;;;;;;;;;;;;11.94;53.71;99066.16;1087550;47;1098;-81
2023/12/11 17:44:53;;;;;;;;;;;;;;;12.16;53.35;99075.25;1087420;54;1860;-81
2023/12/11 17:45:54;;;;;;;;;;;;;;;12.08;53.46;99069.94;1087516;54;1359;-82
2023/12/11 17:46:54;;;;;;;;;;;;;;;12.12;53.29;99071.22;1088162;54;1000;-82
2023/12/11 17:47:59;;;;;;;;;;;;;;;11.91;53.70;99072.69;1088153;47;984;-82
2023/12/11 17:48:59;;;;;;;;;;;;;;;12.02;53.29;99069.63;1088207;47;974;-83
2023/12/11 17:50:03;;;;;;;;;;;;;;;11.93;53.99;99080.56;1088235;47;1048;-84
2023/12/11 17:51:07;;;;;;;;;;;;;;;12.08;53.60;99078.81;1088243;54;1023;-82
2023/12/11 17:52:11;;;;;;;;;;;;;;;12.13;53.69;99078.25;1088221;54;894;-83
2023/12/11 17:53:13;;;;;;;;;;;;;;;11.97;53.76;99096.13;1088175;54;1045;-82
2023/12/11 17:54:16;;;;;;;;;;;;;;;11.98;54.00;99083.56;1088276;54;883;-82
2023/12/11 17:55:17;;;;;;;;;;;;;;;12.15;53.91;99085.09;1088369;54;1005;-83
2023/12/11 17:56:21;;;;;;;;;;;;;;;12.02;53.90;99083.03;1088124;47;1353;-83
2023/12/11 17:57:21;;;;;;;;;;;;;;;12.00;54.19;99084.22;1088106;54;1083;-82
2023/12/11 17:58:25;;;;;;;;;;;;;;;11.94;54.74;99091.09;1087952;54;1110;-81
2023/12/11 17:59:25;;;;;;;;;;;;;;;11.83;55.04;99089.66;1087885;54;1073;-81
2023/12/11 18:00:28;;;;;;;;;;;;;;;11.85;55.07;99090.28;1087845;47;1158;-82
2023/12/11 18:01:29;;;;;;;;;;;;;;;11.64;55.59;99098.13;1087904;54;1162;-83
2023/12/11 18:02:31;;;;;;;;;;;;;;;11.76;55.67;99098.56;1088208;47;1004;-82
2023/12/11 18:03:35;;;;;;;;;;;;;;;11.76;55.78;99090.53;1088369;54;1131;-82
2023/12/11 18:04:35;;;;;;;;;;;;;;;11.67;55.84;99101.28;1088250;47;1856;-82
2023/12/11 18:05:39;;;;;;;;;;;;;;;11.62;56.22;99092.91;1088100;54;1533;-81
2023/12/11 18:06:43;;;;;;;;;;;;;;;11.53;56.46;99094.81;1088148;47;1442;-81
2023/12/11 18:07:46;;;;;;;;;;;;;;;11.47;56.46;99095.53;1088122;54;1190;-81
2023/12/11 18:08:47;;;;;;;;;;;;;;;11.71;56.29;99107.94;1088058;47;1012;-83
2023/12/11 18:09:52;;;;;;;;;;;;;;;11.62;56.46;99094.78;1088133;47;951;-82
2023/12/11 18:10:53;;;;;;;;;;;;;;;11.59;56.54;99097.78;1088248;47;1082;-81
2023/12/11 18:11:57;;;;;;;;;;;;;;;11.40;56.65;99099.88;1087840;47;1028;-80
2023/12/11 18:12:58;;;;;;;;;;;;;;;11.39;56.66;99104.41;1087936;46;979;-81
2023/12/11 18:14:01;;;;;;;;;;;;;;;11.33;56.82;99106.94;1087787;47;1099;-80
2023/12/11 18:15:02;;;;;;;;;;;;;;;11.29;56.96;99092.25;1087583;47;1175;-80
2023/12/11 18:16:05;;;;;;;;;;;;;;;11.32;56.66;99110.63;1087344;47;1373;-81
2023/12/11 18:17:07;;;;;;;;;;;;;;;11.32;56.55;99106.13;1087752;47;1107;-81
2023/12/11 18:18:11;;;;;;;;;;;;;;;11.35;56.36;99103.06;1087728;47;1108;-82
2023/12/11 18:19:12;;;;;;;;;;;;;;;11.51;56.19;99101.38;1087712;54;1190;-82
2023/12/11 18:20:15;;;;;;;;;;;;;;;11.52;56.21;99103.03;1087870;54;1032;-81
2023/12/11 18:21:16;;;;;;;;;;;;;;;11.42;56.20;99113.09;1088067;54;1394;-80
2023/12/11 18:22:22;;;;;;;;;;;;;;;11.36;56.30;99115.44;1088289;47;1117;-81
2023/12/11 18:23:23;;;;;;;;;;;;;;;11.24;56.56;99120.34;1088286;46;1433;-81
2023/12/11 18:24:27;;;;;;;;;;;;;;;11.28;56.35;99117.34;1088137;47;1085;-82
2023/12/11 18:25:27;;;;;;;;;;;;;;;11.28;56.53;99115.47;1088200;47;1854;-82
2023/12/11 18:26:31;;;;;;;;;;;;;;;11.43;56.08;99115.59;1088538;54;1370;-82
2023/12/11 18:27:34;;;;;;;;;;;;;;;11.44;56.05;99116.41;1088604;54;969;-81
2023/12/11 18:28:38;;;;;;;;;;;;;;;11.32;56.30;99116.81;1088294;47;997;-81
2023/12/11 18:29:39;;;;;;;;;;;;;;;11.27;56.33;99113.81;1087997;47;874;-82
2023/12/11 18:30:42;;;;;;;;;;;;;;;11.24;56.53;99125.69;1088153;47;866;-82
2023/12/11 18:31:43;;;;;;;;;;;;;;;11.23;56.54;99136.56;1088354;54;974;-82
2023/12/11 18:32:47;;;;;;;;;;;;;;;11.21;56.70;99118.00;1088294;47;947;-81
2023/12/11 18:33:48;;;;;;;;;;;;;;;11.20;56.98;99126.22;1088074;54;983;-82
2023/12/11 18:34:51;;;;;;;;;;;;;;;11.22;56.88;99124.22;1088253;54;1010;-84
2023/12/11 18:35:52;;;;;;;;;;;;;;;11.27;56.82;99121.84;1088225;47;1300;-83
2023/12/11 18:36:55;;;;;;;;;;;;;;;11.10;56.80;99125.56;1088215;47;860;-81
2023/12/11 18:37:59;;;;;;;;;;;;;;;11.21;56.54;99119.84;1088288;54;1000;-83
2023/12/11 18:39:02;;;;;;;;;;;;;;;11.19;56.85;99129.88;1088165;46;1001;-82
2023/12/11 18:40:03;;;;;;;;;;;;;;;11.26;56.73;99130.88;1088144;47;965;-82
2023/12/11 18:41:06;;;;;;;;;;;;;;;11.15;56.90;99128.53;1088100;47;1128;-83
2023/12/11 18:42:07;;;;;;;;;;;;;;;11.17;56.72;99131.91;1088047;46;1060;-82
2023/12/11 18:43:11;;;;;;;;;;;;;;;11.08;57.03;99139.13;1088075;47;915;-82
2023/12/11 18:44:12;;;;;;;;;;;;;;;11.10;57.15;99139.75;1088154;54;1040;-81
2023/12/11 18:45:17;;;;;;;;;;;;;;;11.06;57.17;99141.94;1087962;46;1848;-82
2023/12/11 18:46:18;;;;;;;;;;;;;;;11.05;57.33;99140.28;1088036;54;1318;-82
2023/12/11 18:47:21;;;;;;;;;;;;;;;11.06;56.95;99136.59;1087837;54;1107;-82
2023/12/11 18:48:23;;;;;;;;;;;;;;;11.24;57.02;99148.94;1088021;47;973;-82
2023/12/11 18:49:28;;;;;;;;;;;;;;;11.03;56.99;99136.09;1087905;54;993;-82
2023/12/11 18:50:29;;;;;;;;;;;;;;;11.00;57.31;99153.34;1088156;47;1083;-81
2023/12/11 18:51:31;;;;;;;;;;;;;;;11.13;57.12;99146.63;1088162;54;960;-82
2023/12/11 18:52:35;;;;;;;;;;;;;;;11.15;56.96;99144.59;1088078;46;1051;-82
2023/12/11 18:53:40;;;;;;;;;;;;;;;11.03;57.09;99147.66;1088150;54;1093;-83
2023/12/11 18:54:45;;;;;;;;;;;;;;;11.01;57.54;99144.31;1088187;54;925;-82
2023/12/11 18:55:45;;;;;;;;;;;;;;;11.07;57.17;99148.97;1088127;47;1009;-82
2023/12/11 18:56:50;;;;;;;;;;;;;;;11.20;56.86;99147.63;1088185;54;1410;-82
2023/12/11 18:57:52;;;;;;;;;;;;;;;11.16;57.09;99149.78;1088326;46;909;-82
2023/12/11 18:58:55;;;;;;;;;;;;;;;11.17;57.09;99153.28;1088020;54;951;-81
2023/12/11 18:59:56;;;;;;;;;;;;;;;10.98;57.41;99149.97;1087847;47;1009;-82
2023/12/11 19:01:01;;;;;;;;;;;;;;;11.14;56.94;99148.31;1087995;54;1126;-82
2023/12/11 19:02:03;;;;;;;;;;;;;;;11.13;57.30;99154.66;1087849;47;1066;-81
2023/12/11 19:03:07;;;;;;;;;;;;;;;11.16;56.94;99157.81;1087983;54;924;-83
2023/12/11 19:04:09;;;;;;;;;;;;;;;11.27;56.93;99153.94;1087944;54;1084;-81
2023/12/11 19:05:13;;;;;;;;;;;;;;;11.13;56.95;99154.66;1087893;54;1857;-81
2023/12/11 19:06:13;;;;;;;;;;;;;;;11.09;57.38;99151.50;1087570;47;1375;-81
2023/12/11 19:07:16;;;;;;;;;;;;;;;11.09;57.37;99154.16;1087787;54;1115;-82
2023/12/11 19:08:17;;;;;;;;;;;;;;;11.07;57.31;99154.31;1087809;54;1190;-81
2023/12/11 19:09:23;;;;;;;;;;;;;;;11.01;57.30;99157.69;1087643;47;1020;-81
2023/12/11 19:10:24;;;;;;;;;;;;;;;11.01;57.73;99170.19;1087711;47;1039;-81
2023/12/11 19:11:27;;;;;;;;;;;;;;;11.03;57.38;99163.69;1087715;47;1012;-81
2023/12/11 19:12:29;;;;;;;;;;;;;;;11.21;57.00;99165.34;1086979;54;1175;-81
2023/12/11 19:13:32;;;;;;;;;;;;;;;11.06;57.41;99166.00;1087847;54;1168;-82
2023/12/11 19:14:33;;;;;;;;;;;;;;;11.03;57.69;99160.16;1087660;47;911;-81
2023/12/11 19:15:36;;;;;;;;;;;;;;;11.06;57.48;99175.88;1087280;47;1016;-83
2023/12/11 19:16:37;;;;;;;;;;;;;;;11.12;57.35;99185.09;1087887;54;1394;-81
2023/12/11 19:17:40;;;;;;;;;;;;;;;11.23;56.97;99184.72;1087586;54;1171;-83
2023/12/11 19:18:41;;;;;;;;;;;;;;;11.02;57.44;99179.91;1087635;47;1035;-80
2023/12/11 19:19:44;;;;;;;;;;;;;;;11.11;57.59;99178.06;1087923;54;1052;-81
2023/12/11 19:20:45;;;;;;;;;;;;;;;11.03;57.39;99178.91;1088088;54;1105;-83
2023/12/11 19:21:50;;;;;;;;;;;;;;;10.98;57.76;99187.41;1087943;54;1076;-83
2023/12/11 19:22:51;;;;;;;;;;;;;;;10.97;57.66;99185.75;1088159;54;914;-82
2023/12/11 19:23:56;;;;;;;;;;;;;;;10.90;58.35;99195.44;1087866;47;1056;-81
2023/12/11 19:24:59;;;;;;;;;;;;;;;11.08;57.74;99193.44;1087804;47;1056;-82
2023/12/11 19:26:03;;;;;;;;;;;;;;;11.12;57.59;99193.09;1087789;47;1889;-81
2023/12/11 19:27:04;;;;;;;;;;;;;;;11.02;57.56;99191.44;1087509;47;1087;-81
2023/12/11 19:28:08;;;;;;;;;;;;;;;11.00;57.93;99201.47;1087228;54;1091;-81
2023/12/11 19:29:09;;;;;;;;;;;;;;;10.90;58.15;99198.97;1087606;54;1152;-82
2023/12/11 19:32:49;;;;;;;;;;;;;;;10.89;57.93;99210.69;1088326;54;732;-80
2023/12/11 19:33:50;;;;;;;;;;;;;;;10.97;58.07;99217.00;1088044;47;974;-79
2023/12/11 19:34:54;;;;;;;;;;;;;;;10.83;58.40;99211.31;1087976;47;958;-78
2023/12/11 19:35:55;;;;;;;;;;;;;;;10.89;58.23;99210.69;1087933;47;1283;-79
2023/12/11 19:37:00;;;;;;;;;;;;;;;11.04;57.97;99218.88;1088004;47;948;-78
2023/12/11 19:38:01;;;;;;;;;;;;;;;10.97;57.96;99217.84;1088040;54;974;-77
2023/12/11 19:39:01;;;;;;;;;;;;;;;10.97;57.95;99214.34;1088054;54;1129;-78
2023/12/11 19:40:08;;;;;;;;;;;;;;;10.99;58.04;99221.19;1088018;54;977;-79
2023/12/11 19:41:09;;;;;;;;;;;;;;;10.90;58.41;99216.84;1088068;54;915;-78
2023/12/11 19:42:13;;;;;;;;;;;;;;;10.66;58.70;99218.53;1087945;47;959;-78